Time;durP1;ratioP1;P1;durP2;ratioP2;P2;SDS_P1;SDS_P2;PMS_P1;PMS_P2;Temp;Humidity;BMP_temperature;BMP_pressure;BME280_temperature;BME280_humidity;BME280_pressure;Samples;Min_cycle;Max_cycle;Signal;HPM_P1;HPM_P2
2023/09/04 00:01:12;;;;;;;3.52;3.25;;;16.90;97.40;;;;;;949560;147;27295;-72
2023/09/04 00:03:39;;;;;;;3.52;3.22;;;16.90;97.60;;;;;;949123;147;27377;-71
2023/09/04 00:06:05;;;;;;;3.33;3.02;;;16.80;97.90;;;;;;951279;147;27353;-72
2023/09/04 00:08:32;;;;;;;4.10;3.70;;;16.80;98.20;;;;;;949801;147;27393;-71
2023/09/04 00:10:59;;;;;;;4.85;3.40;;;16.80;98.50;;;;;;950219;147;27287;-71
2023/09/04 00:13:25;;;;;;;5.17;3.67;;;16.70;98.70;;;;;;951555;147;27329;-74
2023/09/04 00:15:56;;;;;;;3.75;3.47;;;16.70;99.20;;;;;;951812;147;27368;-71
2023/09/04 00:18:18;;;;;;;3.58;3.27;;;16.70;99.60;;;;;;950188;147;27399;-70
2023/09/04 00:20:45;;;;;;;4.28;3.67;;;16.70;99.90;;;;;;943775;148;27354;-70
2023/09/04 00:23:11;;;;;;;3.70;3.40;;;16.60;99.90;;;;;;950868;147;27308;-74
2023/09/04 00:25:38;;;;;;;6.05;3.75;;;16.70;99.90;;;;;;951617;147;27353;-74
2023/09/04 00:28:05;;;;;;;3.80;3.50;;;16.60;99.90;;;;;;948847;147;27462;-71
2023/09/04 00:30:31;;;;;;;4.50;3.72;;;16.60;99.90;;;;;;949968;147;27387;-73
2023/09/04 00:32:58;;;;;;;4.05;3.65;;;16.60;99.90;;;;;;939519;148;27410;-72
2023/09/04 00:35:24;;;;;;;4.58;3.98;;;16.60;99.90;;;;;;937376;149;27349;-73
2023/09/04 00:37:51;;;;;;;3.90;3.60;;;16.60;99.90;;;;;;941728;149;27375;-74
2023/09/04 00:40:18;;;;;;;4.03;3.72;;;16.60;99.90;;;;;;938063;149;27773;-74
2023/09/04 00:42:44;;;;;;;4.00;3.70;;;16.60;99.90;;;;;;942888;148;27397;-75
2023/09/04 00:45:13;;;;;;;5.03;4.55;;;16.60;99.90;;;;;;943158;148;27297;-74
2023/09/04 00:47:40;;;;;;;4.40;4.10;;;16.60;99.90;;;;;;939578;148;27503;-77
2023/09/04 00:50:06;;;;;;;6.58;4.40;;;16.60;99.90;;;;;;941542;148;27448;-75
2023/09/04 00:52:33;;;;;;;5.28;3.65;;;16.60;99.90;;;;;;942193;148;28178;-74
2023/09/04 00:55:00;;;;;;;4.17;3.87;;;16.50;99.90;;;;;;944117;148;27346;-76
2023/09/04 00:57:26;;;;;;;4.45;3.90;;;16.50;99.90;;;;;;943287;148;27473;-74
2023/09/04 00:59:53;;;;;;;4.05;3.62;;;16.50;99.90;;;;;;942870;148;27346;-73
2023/09/04 01:02:19;;;;;;;3.83;3.45;;;16.50;99.90;;;;;;941332;148;27449;-73
2023/09/04 01:04:46;;;;;;;4.58;3.75;;;16.50;99.90;;;;;;942412;148;27334;-76
2023/09/04 01:07:12;;;;;;;4.10;3.70;;;16.50;99.90;;;;;;942546;148;27362;-77
2023/09/04 01:09:39;;;;;;;3.42;3.17;;;16.50;99.90;;;;;;941199;148;27375;-73
2023/09/04 01:12:11;;;;;;;4.15;3.85;;;16.50;99.90;;;;;;942253;148;27365;-73
2023/09/04 01:14:38;;;;;;;3.62;3.35;;;16.50;99.90;;;;;;940888;148;27355;-74
2023/09/04 01:17:05;;;;;;;3.85;3.08;;;16.40;99.90;;;;;;943948;148;27382;-75
2023/09/04 01:19:32;;;;;;;3.40;3.20;;;16.50;99.90;;;;;;943289;148;27459;-73
2023/09/04 01:21:58;;;;;;;3.65;3.45;;;16.40;99.90;;;;;;944597;148;27299;-74
2023/09/04 01:24:24;;;;;;;4.30;3.90;;;16.40;99.90;;;;;;941733;148;27492;-74
2023/09/04 01:26:54;;;;;;;4.45;3.42;;;16.30;99.90;;;;;;939961;148;27425;-75
2023/09/04 01:29:38;;;;;;;5.05;3.47;;;16.30;99.90;;;;;;941322;148;27379;-73
2023/09/04 01:32:08;;;;;;;5.50;4.10;;;16.30;99.90;;;;;;939054;148;27516;-71
2023/09/04 01:34:36;;;;;;;3.90;3.60;;;16.30;99.90;;;;;;939680;148;27360;-72
2023/09/04 01:37:01;;;;;;;7.35;3.98;;;16.30;99.90;;;;;;937018;148;27383;-74
2023/09/04 01:39:28;;;;;;;3.80;3.50;;;16.20;99.90;;;;;;937341;149;27717;-72
2023/09/04 01:41:54;;;;;;;3.83;3.37;;;16.20;99.90;;;;;;934677;150;27276;-72
2023/09/04 01:44:21;;;;;;;4.10;3.77;;;16.20;99.90;;;;;;935750;150;27337;-72
2023/09/04 01:46:47;;;;;;;3.90;3.60;;;16.10;99.90;;;;;;929412;150;27863;-74
2023/09/04 01:49:14;;;;;;;3.95;3.65;;;16.10;99.90;;;;;;929429;150;27397;-72
2023/09/04 01:51:41;;;;;;;4.05;3.65;;;16.00;99.90;;;;;;935363;150;28562;-72
2023/09/04 01:54:08;;;;;;;4.30;3.90;;;16.00;99.90;;;;;;928449;150;27331;-73
2023/09/04 01:56:34;;;;;;;3.87;3.58;;;16.00;99.90;;;;;;930027;150;27384;-73
2023/09/04 01:59:00;;;;;;;3.85;3.37;;;15.90;99.90;;;;;;939234;148;27353;-76
2023/09/04 02:01:27;;;;;;;3.85;3.55;;;15.90;99.90;;;;;;934355;150;27409;-75
2023/09/04 02:03:56;;;;;;;11.53;4.90;;;15.90;99.90;;;;;;935420;150;27407;-75
2023/09/04 02:06:20;;;;;;;4.33;4.00;;;15.80;99.90;;;;;;936207;150;27280;-75
2023/09/04 02:08:47;;;;;;;3.80;3.50;;;15.80;99.90;;;;;;934941;150;27462;-74
2023/09/04 02:11:13;;;;;;;3.98;3.67;;;15.70;99.90;;;;;;933037;150;27361;-75
2023/09/04 02:13:40;;;;;;;3.83;3.52;;;15.70;99.90;;;;;;934993;150;27692;-75
2023/09/04 02:16:06;;;;;;;3.73;3.43;;;15.70;99.90;;;;;;934743;150;27291;-75
2023/09/04 02:18:33;;;;;;;3.37;3.17;;;15.60;99.90;;;;;;936353;149;27332;-75
2023/09/04 02:21:00;;;;;;;3.75;3.45;;;15.60;99.90;;;;;;935469;149;27332;-75
2023/09/04 02:23:26;;;;;;;3.50;3.30;;;15.60;99.90;;;;;;934378;150;27440;-74
2023/09/04 02:25:53;;;;;;;5.45;3.80;;;15.60;99.90;;;;;;936044;149;27287;-75
2023/09/04 02:28:19;;;;;;;3.65;3.35;;;15.50;99.90;;;;;;936341;150;27373;-75
2023/09/04 02:30:46;;;;;;;4.58;4.05;;;15.50;99.90;;;;;;936430;150;27276;-74
2023/09/04 02:33:13;;;;;;;4.45;3.87;;;15.50;99.90;;;;;;937997;149;27915;-75
2023/09/04 02:35:39;;;;;;;3.93;3.47;;;15.40;99.90;;;;;;939103;148;27347;-74
2023/09/04 02:38:06;;;;;;;5.00;3.80;;;15.40;99.90;;;;;;942329;148;27377;-74
2023/09/04 02:40:32;;;;;;;3.43;3.17;;;15.40;99.90;;;;;;941475;148;27355;-75
2023/09/04 02:42:59;;;;;;;3.93;3.53;;;15.40;99.90;;;;;;942983;148;27383;-75
2023/09/04 02:45:25;;;;;;;3.98;3.65;;;15.30;99.90;;;;;;941409;148;27382;-75
2023/09/04 02:47:52;;;;;;;3.65;3.27;;;15.30;99.90;;;;;;934649;149;27436;-75
2023/09/04 02:50:19;;;;;;;4.33;3.80;;;15.30;99.90;;;;;;939662;149;27340;-75
2023/09/04 02:52:45;;;;;;;4.65;4.10;;;15.30;99.90;;;;;;943678;148;27383;-75
2023/09/04 02:55:12;;;;;;;4.60;4.20;;;15.20;99.90;;;;;;942006;148;27376;-75
2023/09/04 02:57:38;;;;;;;3.72;3.42;;;15.20;99.90;;;;;;935224;149;27454;-74
2023/09/04 03:00:08;;;;;;;4.60;3.70;;;15.20;99.90;;;;;;938389;149;27348;-75
2023/09/04 03:02:32;;;;;;;3.90;3.60;;;15.20;99.90;;;;;;936033;149;27319;-75
2023/09/04 03:04:58;;;;;;;4.47;4.07;;;15.10;99.90;;;;;;935486;149;27340;-75
2023/09/04 03:07:28;;;;;;;4.40;3.33;;;15.10;99.90;;;;;;937811;149;28071;-74
2023/09/04 03:09:57;;;;;;;5.77;3.53;;;15.00;99.90;;;;;;936297;149;27330;-75
2023/09/04 03:12:21;;;;;;;4.03;3.67;;;15.00;99.90;;;;;;936370;149;27429;-74
2023/09/04 03:14:52;;;;;;;6.13;3.77;;;15.00;99.90;;;;;;936003;149;27470;-75
2023/09/04 03:17:14;;;;;;;3.67;3.37;;;14.90;99.90;;;;;;936609;149;27693;-75
2023/09/04 03:19:41;;;;;;;4.17;3.47;;;14.90;99.90;;;;;;936780;149;27357;-75
2023/09/04 03:22:07;;;;;;;5.13;3.80;;;14.90;99.90;;;;;;934324;149;27319;-74
2023/09/04 03:24:34;;;;;;;3.77;3.47;;;14.90;99.90;;;;;;937471;149;27306;-75
2023/09/04 03:27:01;;;;;;;4.50;4.10;;;14.80;99.90;;;;;;936308;149;27409;-75
2023/09/04 03:29:27;;;;;;;4.70;4.30;;;14.80;99.90;;;;;;945538;148;27360;-74
2023/09/04 03:31:54;;;;;;;4.37;4.03;;;14.80;99.90;;;;;;939654;148;27395;-74
2023/09/04 03:34:20;;;;;;;5.60;3.80;;;14.70;99.90;;;;;;934482;149;27391;-75
2023/09/04 03:36:47;;;;;;;5.33;4.83;;;14.70;99.90;;;;;;932039;149;27348;-75
2023/09/04 03:39:13;;;;;;;3.83;3.53;;;14.70;99.90;;;;;;934508;149;27475;-75
2023/09/04 03:41:40;;;;;;;3.67;3.37;;;14.70;99.90;;;;;;931408;149;27673;-75
2023/09/04 03:44:07;;;;;;;4.90;4.20;;;14.70;99.90;;;;;;931502;149;27354;-75
2023/09/04 03:46:33;;;;;;;4.27;3.83;;;14.70;99.90;;;;;;935370;149;27372;-75
2023/09/04 03:49:00;;;;;;;3.80;3.50;;;14.70;99.90;;;;;;933801;149;27350;-75
2023/09/04 03:51:26;;;;;;;5.27;3.63;;;14.60;99.90;;;;;;935286;149;27376;-75
2023/09/04 03:53:53;;;;;;;4.23;3.93;;;14.70;99.90;;;;;;933619;149;27283;-75
2023/09/04 03:56:20;;;;;;;4.30;3.90;;;14.70;99.90;;;;;;934387;149;27741;-75
2023/09/04 03:58:46;;;;;;;4.00;3.70;;;14.70;99.90;;;;;;933110;149;27358;-75
2023/09/04 04:01:13;;;;;;;4.30;3.90;;;14.70;99.90;;;;;;933389;149;28325;-75
2023/09/04 04:03:39;;;;;;;4.80;4.47;;;14.70;99.90;;;;;;932408;149;27320;-75
2023/09/04 04:06:13;;;;;;;5.20;3.98;;;14.70;99.90;;;;;;932400;149;27330;-75
2023/09/04 04:08:38;;;;;;;4.30;3.90;;;14.70;99.90;;;;;;932632;149;27454;-75
2023/09/04 04:11:05;;;;;;;4.00;3.70;;;14.70;99.90;;;;;;933631;149;27323;-75
2023/09/04 04:13:31;;;;;;;4.20;3.80;;;14.70;99.90;;;;;;933940;149;27338;-75
2023/09/04 04:15:59;;;;;;;3.90;3.58;;;14.70;99.90;;;;;;933121;149;27327;-75
2023/09/04 04:18:26;;;;;;;4.17;3.60;;;14.60;99.90;;;;;;933495;149;27403;-75
2023/09/04 04:20:51;;;;;;;4.65;4.25;;;14.60;99.90;;;;;;932911;149;27331;-73
2023/09/04 04:23:18;;;;;;;4.00;3.60;;;14.60;99.90;;;;;;931968;149;27352;-75
2023/09/04 04:25:44;;;;;;;6.50;4.17;;;14.60;99.90;;;;;;932237;149;27328;-75
2023/09/04 04:28:11;;;;;;;4.25;3.95;;;14.60;99.90;;;;;;932609;149;27312;-75
2023/09/04 04:30:38;;;;;;;3.87;3.57;;;14.60;99.90;;;;;;932812;149;27465;-75
2023/09/04 04:33:04;;;;;;;4.10;3.80;;;14.60;99.90;;;;;;932808;149;27386;-75
2023/09/04 04:35:31;;;;;;;5.25;4.33;;;14.60;99.90;;;;;;933448;149;27316;-75
2023/09/04 04:37:57;;;;;;;3.83;3.53;;;14.60;99.90;;;;;;932422;149;27329;-75
2023/09/04 04:40:24;;;;;;;4.22;3.72;;;14.60;99.90;;;;;;933393;149;27362;-75
2023/09/04 04:42:50;;;;;;;6.80;4.40;;;14.60;99.90;;;;;;932926;149;27422;-75
2023/09/04 04:45:17;;;;;;;4.53;3.87;;;14.60;99.90;;;;;;932921;149;27415;-75
2023/09/04 04:47:44;;;;;;;4.40;4.10;;;14.60;99.90;;;;;;933248;149;27437;-75
2023/09/04 04:50:10;;;;;;;4.62;4.22;;;14.60;99.90;;;;;;934502;149;27386;-75
2023/09/04 04:52:37;;;;;;;4.10;3.80;;;14.60;99.90;;;;;;932242;149;27422;-75
2023/09/04 04:55:04;;;;;;;5.50;4.50;;;14.70;99.90;;;;;;933390;149;27412;-75
2023/09/04 04:57:30;;;;;;;4.07;3.77;;;14.70;99.90;;;;;;933260;149;27308;-75
2023/09/04 04:59:57;;;;;;;4.13;3.83;;;14.70;99.90;;;;;;933919;149;27430;-76
2023/09/04 05:02:23;;;;;;;4.25;3.85;;;14.70;99.90;;;;;;934513;149;27367;-75
2023/09/04 05:04:50;;;;;;;4.55;4.15;;;14.80;99.90;;;;;;933552;149;27295;-75
2023/09/04 05:07:16;;;;;;;4.05;3.75;;;14.90;99.90;;;;;;932329;149;27738;-75
2023/09/04 05:09:43;;;;;;;4.37;3.92;;;15.00;99.90;;;;;;933078;149;27384;-75
2023/09/04 05:12:09;;;;;;;4.72;4.33;;;15.10;99.90;;;;;;934519;149;27375;-75
2023/09/04 05:14:36;;;;;;;4.55;4.15;;;15.30;99.90;;;;;;931633;150;27469;-75
2023/09/04 05:17:03;;;;;;;5.85;5.35;;;15.50;99.90;;;;;;932800;149;27320;-75
2023/09/04 05:19:29;;;;;;;6.58;5.60;;;15.70;99.90;;;;;;936886;149;27325;-75
2023/09/04 05:21:56;;;;;;;6.53;5.75;;;16.00;99.90;;;;;;939156;149;27345;-75
2023/09/04 05:24:22;;;;;;;5.92;5.42;;;16.30;99.90;;;;;;939472;149;27346;-75
2023/09/04 05:26:49;;;;;;;6.12;5.03;;;16.70;99.90;;;;;;939005;149;27442;-75
2023/09/04 05:29:16;;;;;;;5.42;5.03;;;17.10;99.90;;;;;;939486;149;27399;-75
2023/09/04 05:31:42;;;;;;;5.40;4.90;;;17.60;99.90;;;;;;938240;149;27282;-75
2023/09/04 05:34:09;;;;;;;4.08;3.77;;;18.10;99.90;;;;;;931813;148;27408;-75
2023/09/04 05:36:35;;;;;;;5.28;3.83;;;18.60;99.90;;;;;;949966;147;28151;-75
2023/09/04 05:39:02;;;;;;;3.10;2.75;;;19.10;99.90;;;;;;949921;147;27707;-75
2023/09/04 05:41:29;;;;;;;3.20;3.00;;;19.60;99.90;;;;;;949420;147;27372;-75
2023/09/04 05:43:55;;;;;;;3.50;3.20;;;20.00;99.90;;;;;;950820;147;27299;-75
2023/09/04 05:46:22;;;;;;;3.62;3.22;;;20.50;99.90;;;;;;951011;147;27963;-75
2023/09/04 05:48:48;;;;;;;3.20;2.90;;;20.90;99.90;;;;;;950338;147;27338;-75
2023/09/04 05:51:15;;;;;;;2.98;2.72;;;21.40;99.90;;;;;;949779;147;27319;-75
2023/09/04 05:53:41;;;;;;;3.10;2.25;;;21.90;99.90;;;;;;950449;147;27409;-75
2023/09/04 05:56:11;;;;;;;2.65;2.45;;;22.50;99.90;;;;;;950251;147;27341;-75
2023/09/04 05:58:35;;;;;;;2.55;2.20;;;23.10;99.90;;;;;;949029;147;28175;-76
2023/09/04 06:01:01;;;;;;;2.40;2.20;;;23.70;99.90;;;;;;952019;147;27297;-76
2023/09/04 06:03:28;;;;;;;3.17;2.35;;;24.30;99.90;;;;;;952277;147;27425;-75
2023/09/04 06:05:54;;;;;;;3.22;2.40;;;25.00;99.90;;;;;;945060;148;27367;-75
2023/09/04 06:08:21;;;;;;;4.37;2.05;;;25.60;99.90;;;;;;944975;148;27420;-75
2023/09/04 06:10:48;;;;;;;3.08;2.35;;;26.30;97.10;;;;;;950569;147;27321;-75
2023/09/04 06:13:14;;;;;;;2.47;2.27;;;26.90;95.00;;;;;;944479;148;27289;-75
2023/09/04 06:15:41;;;;;;;2.55;2.27;;;27.50;91.80;;;;;;950627;147;27321;-75
2023/09/04 06:18:07;;;;;;;2.58;2.37;;;28.10;89.60;;;;;;943845;148;27380;-75
2023/09/04 06:20:34;;;;;;;2.42;2.22;;;28.60;85.30;;;;;;948480;147;27367;-75
2023/09/04 06:23:02;;;;;;;2.20;2.10;;;29.20;82.60;;;;;;943219;148;27292;-75
2023/09/04 06:25:27;;;;;;;2.40;2.20;;;29.70;79.70;;;;;;948747;147;27398;-75
2023/09/04 06:27:54;;;;;;;2.27;2.12;;;30.10;77.00;;;;;;949944;147;27356;-75
2023/09/04 06:30:20;;;;;;;2.33;1.87;;;30.60;74.40;;;;;;951453;147;27726;-75
2023/09/04 06:32:47;;;;;;;2.60;2.40;;;31.00;72.60;;;;;;951410;147;26301;-75
2023/09/04 06:35:13;;;;;;;2.30;2.10;;;31.30;70.90;;;;;;944702;147;27419;-75
2023/09/04 06:37:40;;;;;;;2.98;2.20;;;31.70;69.40;;;;;;939332;148;27444;-75
2023/09/04 06:40:07;;;;;;;2.20;2.02;;;32.10;68.50;;;;;;936210;149;27406;-75
2023/09/04 06:42:33;;;;;;;1.90;1.80;;;32.50;67.50;;;;;;943880;148;27351;-76
2023/09/04 06:45:00;;;;;;;2.52;2.10;;;32.90;66.10;;;;;;935302;149;26264;-76
2023/09/04 06:47:27;;;;;;;4.50;1.77;;;33.40;65.30;;;;;;935946;149;26267;-76
2023/09/04 06:49:53;;;;;;;2.10;2.00;;;33.90;64.00;;;;;;932111;149;27481;-77
2023/09/04 06:52:20;;;;;;;2.05;1.95;;;34.40;62.60;;;;;;942295;148;26252;-76
2023/09/04 06:54:46;;;;;;;2.22;2.02;;;34.80;61.40;;;;;;941392;148;26369;-77
2023/09/04 06:57:13;;;;;;;3.60;2.02;;;35.20;60.50;;;;;;941748;148;26250;-77
2023/09/04 06:59:40;;;;;;;1.92;1.82;;;35.60;59.20;;;;;;941608;148;26262;-77
2023/09/04 07:02:06;;;;;;;2.17;1.90;;;36.00;58.60;;;;;;934391;149;26365;-77
2023/09/04 07:04:33;;;;;;;2.98;2.12;;;36.40;57.70;;;;;;950883;147;26192;-77
2023/09/04 07:06:59;;;;;;;7.50;2.00;;;36.80;57.00;;;;;;951251;147;26369;-77
2023/09/04 07:09:26;;;;;;;2.55;1.75;;;37.20;55.90;;;;;;949224;147;26307;-77
2023/09/04 07:11:53;;;;;;;3.62;2.00;;;37.60;55.60;;;;;;948727;147;26379;-77
2023/09/04 07:14:19;;;;;;;3.45;2.10;;;37.90;54.80;;;;;;950767;147;26263;-77
2023/09/04 07:16:46;;;;;;;1.98;1.87;;;38.30;54.20;;;;;;949334;147;26357;-77
2023/09/04 07:19:12;;;;;;;1.72;1.62;;;38.70;53.60;;;;;;950504;147;26232;-75
2023/09/04 07:21:40;;;;;;;1.75;1.65;;;39.10;52.70;;;;;;950775;147;26311;-75
2023/09/04 07:24:06;;;;;;;1.85;1.52;;;39.40;51.70;;;;;;949409;147;26357;-77
2023/09/04 07:26:32;;;;;;;1.42;1.37;;;39.80;51.00;;;;;;951409;147;26341;-77
2023/09/04 07:28:59;;;;;;;2.55;1.52;;;40.10;49.90;;;;;;950786;147;26291;-77
2023/09/04 07:31:25;;;;;;;1.47;1.37;;;40.30;48.50;;;;;;951567;147;26249;-76
2023/09/04 07:33:52;;;;;;;1.15;1.15;;;40.50;47.80;;;;;;950216;147;26196;-77
2023/09/04 07:36:18;;;;;;;1.50;1.40;;;40.60;47.10;;;;;;954290;146;28096;-78
2023/09/04 07:38:45;;;;;;;5.00;1.67;;;40.60;46.30;;;;;;949833;147;26227;-77
2023/09/04 07:41:12;;;;;;;1.60;1.50;;;40.60;45.50;;;;;;949533;147;27808;-76
2023/09/04 07:43:38;;;;;;;2.15;1.30;;;40.50;45.00;;;;;;948026;147;26271;-75
2023/09/04 07:46:05;;;;;;;2.33;1.30;;;40.30;44.70;;;;;;947371;147;26305;-78
2023/09/04 07:48:33;;;;;;;1.42;1.32;;;40.20;44.30;;;;;;948396;147;26347;-78
2023/09/04 07:50:58;;;;;;;1.77;1.32;;;40.00;44.10;;;;;;946759;147;26806;-76
2023/09/04 07:53:25;;;;;;;1.37;1.27;;;39.80;44.10;;;;;;950520;147;26326;-76
2023/09/04 07:55:51;;;;;;;2.58;1.50;;;39.70;44.00;;;;;;947105;147;26353;-75
2023/09/04 07:58:18;;;;;;;1.40;1.30;;;39.60;43.70;;;;;;949024;147;26257;-75
2023/09/04 08:00:47;;;;;;;2.27;1.25;;;39.50;43.20;;;;;;948365;147;26238;-76
2023/09/04 08:03:14;;;;;;;1.90;1.25;;;39.40;43.00;;;;;;949380;147;26349;-76
2023/09/04 08:05:40;;;;;;;1.92;1.47;;;39.20;42.80;;;;;;947915;147;26301;-76
2023/09/04 08:08:10;;;;;;;1.77;1.50;;;39.00;42.80;;;;;;946230;147;26261;-76
2023/09/04 08:10:39;;;;;;;1.60;1.50;;;38.90;42.90;;;;;;948206;147;26649;-76
2023/09/04 08:13:03;;;;;;;1.85;1.40;;;38.90;42.80;;;;;;950636;147;26309;-76
2023/09/04 08:15:29;;;;;;;1.40;1.30;;;38.80;42.90;;;;;;948199;147;26851;-76
2023/09/04 08:17:56;;;;;;;1.52;1.25;;;38.80;42.80;;;;;;951134;147;26209;-76
2023/09/04 08:20:22;;;;;;;1.30;1.20;;;38.80;42.80;;;;;;948380;147;26238;-76
2023/09/04 08:22:49;;;;;;;1.30;1.20;;;38.80;42.60;;;;;;948490;147;26268;-76
2023/09/04 08:25:16;;;;;;;1.77;1.55;;;38.90;42.70;;;;;;950325;147;26289;-76
2023/09/04 08:27:42;;;;;;;0.95;0.95;;;39.00;42.30;;;;;;949030;147;26358;-76
2023/09/04 08:30:09;;;;;;;1.20;1.10;;;39.10;42.00;;;;;;947148;147;26366;-76
2023/09/04 08:32:35;;;;;;;3.05;1.60;;;39.20;41.70;;;;;;949194;147;26200;-76
2023/09/04 08:35:02;;;;;;;1.37;1.27;;;39.30;41.40;;;;;;948579;146;26374;-76
2023/09/04 08:37:29;;;;;;;1.40;1.07;;;39.30;41.20;;;;;;944044;147;27543;-76
2023/09/04 08:39:55;;;;;;;1.25;1.17;;;39.40;40.90;;;;;;943763;148;26262;-76
2023/09/04 08:42:22;;;;;;;1.27;1.27;;;39.50;40.50;;;;;;940598;148;26272;-76
2023/09/04 08:44:48;;;;;;;1.12;1.12;;;39.60;40.50;;;;;;941837;148;26276;-76
2023/09/04 08:47:15;;;;;;;1.98;1.55;;;39.60;40.20;;;;;;942745;148;26289;-75
2023/09/04 08:49:44;;;;;;;1.60;1.32;;;39.60;39.90;;;;;;941446;148;26194;-76
2023/09/04 08:52:11;;;;;;;1.65;1.37;;;39.60;39.80;;;;;;942629;148;26435;-76
2023/09/04 08:54:38;;;;;;;1.02;1.02;;;39.70;39.50;;;;;;939961;148;26356;-76
2023/09/04 08:57:04;;;;;;;1.20;1.20;;;39.70;39.10;;;;;;943440;148;26779;-76
2023/09/04 08:59:31;;;;;;;2.08;1.30;;;39.70;38.90;;;;;;942202;148;26280;-76
2023/09/04 09:02:00;;;;;;;1.37;1.25;;;39.70;39.00;;;;;;944004;148;26326;-76
2023/09/04 09:04:24;;;;;;;1.10;1.00;;;39.60;38.60;;;;;;942320;148;26238;-76
2023/09/04 09:06:51;;;;;;;1.50;1.10;;;39.60;38.20;;;;;;943846;148;26428;-76
2023/09/04 09:09:17;;;;;;;2.25;1.10;;;39.50;38.30;;;;;;943513;148;26322;-76
2023/09/04 09:11:44;;;;;;;1.12;1.12;;;39.50;38.50;;;;;;943798;148;26267;-76
2023/09/04 09:14:10;;;;;;;1.50;1.37;;;39.50;38.30;;;;;;943726;148;26321;-76
2023/09/04 09:16:37;;;;;;;1.20;1.10;;;39.60;38.30;;;;;;942208;148;26256;-76
2023/09/04 09:19:04;;;;;;;1.25;1.10;;;39.60;37.80;;;;;;940167;148;26262;-76
2023/09/04 09:21:30;;;;;;;1.32;1.22;;;39.60;37.60;;;;;;942614;148;26202;-76
2023/09/04 09:24:06;;;;;;;1.30;1.20;;;39.50;37.10;;;;;;945159;148;26240;-76
2023/09/04 09:26:32;;;;;;;1.05;1.05;;;39.30;36.90;;;;;;942527;148;26244;-75
2023/09/04 09:28:59;;;;;;;1.10;1.10;;;39.30;37.10;;;;;;943651;148;26243;-76
2023/09/04 09:31:25;;;;;;;1.32;1.30;;;39.10;36.80;;;;;;943523;148;26271;-76
2023/09/04 09:33:52;;;;;;;1.00;1.00;;;38.90;36.80;;;;;;944468;148;26328;-76
2023/09/04 09:36:19;;;;;;;0.98;0.98;;;38.80;37.10;;;;;;943196;148;26264;-76
2023/09/04 09:38:45;;;;;;;2.25;1.00;;;38.70;37.00;;;;;;931887;150;26288;-76
2023/09/04 09:41:13;;;;;;;0.95;0.78;;;38.60;36.60;;;;;;931958;150;28365;-76
2023/09/04 09:43:38;;;;;;;1.10;1.00;;;38.50;36.40;;;;;;934797;150;26270;-76
2023/09/04 09:46:05;;;;;;;1.55;1.30;;;38.40;36.20;;;;;;933949;150;26311;-76
2023/09/04 09:48:32;;;;;;;1.37;1.20;;;38.20;36.00;;;;;;931143;150;26284;-76
2023/09/04 09:51:00;;;;;;;1.07;1.07;;;38.00;36.20;;;;;;933248;149;26822;-76
2023/09/04 09:53:25;;;;;;;1.42;1.32;;;37.70;36.40;;;;;;933136;150;26254;-76
2023/09/04 09:55:51;;;;;;;1.32;1.20;;;37.40;36.20;;;;;;932378;150;26311;-76
2023/09/04 09:58:18;;;;;;;1.00;1.00;;;37.10;35.70;;;;;;932466;150;26211;-76
2023/09/04 10:00:44;;;;;;;1.90;0.80;;;36.80;36.20;;;;;;930232;150;26310;-76
2023/09/04 10:03:11;;;;;;;2.87;1.30;;;36.40;35.70;;;;;;932407;150;26251;-76
2023/09/04 10:05:38;;;;;;;0.80;0.80;;;36.00;35.90;;;;;;932854;150;27422;-76
2023/09/04 10:08:04;;;;;;;1.47;1.30;;;35.60;35.90;;;;;;932713;150;27388;-76
2023/09/04 10:10:31;;;;;;;1.37;1.27;;;35.20;35.80;;;;;;930584;150;26299;-76
2023/09/04 10:13:00;;;;;;;1.52;1.42;;;34.80;35.40;;;;;;929040;150;28870;-76
2023/09/04 10:15:29;;;;;;;1.10;1.00;;;34.40;35.60;;;;;;928022;150;27354;-78
2023/09/04 10:18:05;;;;;;;1.20;1.10;;;33.90;35.70;;;;;;924136;151;27326;-77
2023/09/04 10:20:29;;;;;;;1.52;1.30;;;33.50;35.60;;;;;;929224;150;27343;-78
2023/09/04 10:23:08;;;;;;;3.22;1.55;;;33.00;36.20;;;;;;929952;150;27272;-78
2023/09/04 10:25:42;;;;;;;1.30;1.20;;;32.60;36.40;;;;;;930541;150;27345;-77
2023/09/04 10:28:14;;;;;;;1.37;1.27;;;32.20;36.90;;;;;;928934;150;28071;-76
2023/09/04 10:30:41;;;;;;;1.30;1.20;;;31.80;37.40;;;;;;931312;150;27484;-76
2023/09/04 10:33:08;;;;;;;1.50;1.35;;;31.40;37.50;;;;;;931918;150;27434;-77
2023/09/04 10:35:34;;;;;;;1.45;1.35;;;31.10;37.70;;;;;;923466;151;27330;-77
2023/09/04 10:38:01;;;;;;;3.47;1.40;;;30.80;37.80;;;;;;924526;150;27508;-75
2023/09/04 10:40:28;;;;;;;1.40;1.30;;;30.60;38.20;;;;;;936815;148;27888;-78
2023/09/04 10:42:54;;;;;;;1.55;1.40;;;30.30;38.70;;;;;;926371;150;27448;-77
2023/09/04 10:45:21;;;;;;;1.37;1.27;;;30.10;39.10;;;;;;935872;149;27389;-76
2023/09/04 10:47:47;;;;;;;1.55;1.40;;;29.90;39.00;;;;;;935573;148;27506;-75
2023/09/04 10:50:32;;;;;;;1.50;1.40;;;29.70;39.40;;;;;;927664;150;27989;-77
2023/09/04 10:53:00;;;;;;;1.20;1.10;;;29.50;39.50;;;;;;943539;147;27338;-78
2023/09/04 10:55:25;;;;;;;1.30;1.27;;;29.40;39.80;;;;;;947068;147;27387;-77
2023/09/04 10:57:55;;;;;;;1.32;1.30;;;29.20;39.90;;;;;;944749;147;27331;-76
2023/09/04 11:00:39;;;;;;;1.60;1.40;;;29.10;39.90;;;;;;943555;147;27483;-78
2023/09/04 11:03:18;;;;;;;2.37;1.40;;;29.00;39.90;;;;;;943834;147;27482;-77
2023/09/04 11:06:04;;;;;;;1.45;1.35;;;28.80;40.20;;;;;;943942;147;27434;-76
2023/09/04 11:08:29;;;;;;;1.82;1.57;;;28.70;40.40;;;;;;947212;147;27314;-77
2023/09/04 11:11:05;;;;;;;2.95;1.22;;;28.50;40.50;;;;;;945113;147;27339;-76
2023/09/04 11:13:34;;;;;;;1.50;1.40;;;28.40;40.90;;;;;;941964;147;27316;-77
2023/09/04 11:16:01;;;;;;;1.37;1.27;;;28.30;41.00;;;;;;942122;147;27415;-76
2023/09/04 11:18:33;;;;;;;1.60;1.50;;;28.20;41.40;;;;;;944180;147;27516;-76
2023/09/04 11:20:59;;;;;;;4.70;1.55;;;28.20;41.60;;;;;;945987;147;27434;-75
2023/09/04 11:23:26;;;;;;;1.57;1.47;;;28.10;41.60;;;;;;948041;148;27766;-76
2023/09/04 11:25:55;;;;;;;1.62;1.52;;;28.10;41.60;;;;;;944976;148;27358;-76
2023/09/04 11:28:24;;;;;;;1.42;1.32;;;28.10;41.80;;;;;;947377;148;27375;-76
2023/09/04 11:30:53;;;;;;;1.20;1.20;;;28.10;41.80;;;;;;946479;147;27878;-76
2023/09/04 11:33:23;;;;;;;2.22;1.50;;;28.10;41.80;;;;;;944803;147;27315;-76
2023/09/04 11:36:04;;;;;;;1.70;1.47;;;28.10;41.90;;;;;;945646;147;27472;-76
2023/09/04 11:38:31;;;;;;;2.55;1.32;;;28.10;41.80;;;;;;951557;146;27473;-76
2023/09/04 11:40:57;;;;;;;2.05;1.80;;;28.10;41.80;;;;;;951566;147;27410;-75
2023/09/04 11:43:24;;;;;;;2.55;2.05;;;28.00;41.80;;;;;;949669;147;27745;-75
2023/09/04 11:45:55;;;;;;;1.80;1.70;;;28.00;41.90;;;;;;948593;147;27465;-75
2023/09/04 11:48:17;;;;;;;1.50;1.40;;;28.10;41.90;;;;;;949863;147;28249;-76
2023/09/04 11:50:44;;;;;;;1.47;1.37;;;28.00;41.90;;;;;;949617;147;27406;-76
2023/09/04 11:53:10;;;;;;;1.42;1.32;;;28.10;42.30;;;;;;949020;147;27455;-76
2023/09/04 11:55:37;;;;;;;1.60;1.27;;;28.10;42.20;;;;;;949203;147;27378;-76
2023/09/04 11:58:04;;;;;;;3.25;1.60;;;28.10;42.20;;;;;;951030;147;27352;-76
2023/09/04 12:00:30;;;;;;;1.50;1.40;;;28.20;42.30;;;;;;949643;147;27385;-75
2023/09/04 12:02:57;;;;;;;1.40;1.30;;;28.20;42.20;;;;;;951435;147;27302;-75
2023/09/04 12:05:23;;;;;;;1.32;1.22;;;28.20;42.20;;;;;;951193;147;27314;-76
2023/09/04 12:07:50;;;;;;;1.55;1.45;;;28.20;42.30;;;;;;950709;147;27430;-76
2023/09/04 12:10:17;;;;;;;1.55;1.30;;;28.20;42.30;;;;;;949998;147;28375;-76
2023/09/04 12:12:43;;;;;;;1.42;1.32;;;28.20;42.70;;;;;;949193;147;27368;-76
2023/09/04 12:15:10;;;;;;;1.60;1.50;;;28.20;42.50;;;;;;948080;147;27319;-75
2023/09/04 12:17:36;;;;;;;1.50;1.40;;;28.20;42.30;;;;;;950183;147;27677;-76
2023/09/04 12:20:05;;;;;;;1.72;1.57;;;28.20;42.50;;;;;;949740;147;28006;-76
2023/09/04 12:22:29;;;;;;;1.60;1.50;;;28.20;42.60;;;;;;948207;147;27314;-75
2023/09/04 12:25:08;;;;;;;1.82;1.57;;;28.20;42.40;;;;;;951004;147;27387;-76
2023/09/04 12:27:35;;;;;;;1.60;1.50;;;28.20;42.30;;;;;;947523;147;27364;-76
2023/09/04 12:30:01;;;;;;;1.57;1.47;;;28.30;42.30;;;;;;942463;148;27372;-76
2023/09/04 12:32:28;;;;;;;3.83;1.50;;;28.30;42.60;;;;;;932886;149;27442;-76
2023/09/04 12:35:01;;;;;;;1.75;1.60;;;28.30;42.20;;;;;;947351;148;27771;-75
2023/09/04 12:37:27;;;;;;;1.22;1.22;;;28.30;42.50;;;;;;950198;147;27385;-76
2023/09/04 12:39:54;;;;;;;1.82;1.60;;;28.30;42.30;;;;;;937320;147;27407;-76
2023/09/04 12:42:20;;;;;;;2.72;1.40;;;28.30;42.70;;;;;;932788;149;27357;-76
2023/09/04 12:44:48;;;;;;;4.17;1.50;;;28.40;42.50;;;;;;928061;150;27707;-76
2023/09/04 12:47:13;;;;;;;1.50;1.40;;;28.40;42.40;;;;;;937883;149;27330;-76